createdAt,value
2019-01-30T00:01:51.071Z,58.40
2019-01-30T00:04:23.468Z,52.08
2019-01-30T00:06:56.972Z,58.30
2019-01-30T00:09:29.530Z,57.10
2019-01-30T00:12:02.780Z,53.30
2019-01-30T00:14:35.446Z,53.05
2019-01-30T00:17:08.185Z,48.08
2019-01-30T00:19:41.523Z,50.33
2019-01-30T00:22:14.384Z,47.75
2019-01-30T00:24:46.732Z,49.15
2019-01-30T00:27:19.167Z,58.52
2019-01-30T00:29:51.813Z,57.38
2019-01-30T00:32:24.115Z,55.08
2019-01-30T00:34:56.430Z,51.73
2019-01-30T00:37:28.521Z,45.60
2019-01-30T00:40:01.278Z,46.48
2019-01-30T00:42:33.706Z,40.12
2019-01-30T00:45:07.849Z,44.25
2019-01-30T00:47:40.454Z,50.23
2019-01-30T00:50:16.141Z,47.88
2019-01-30T00:52:48.835Z,52.05
2019-01-30T00:55:22.328Z,49.50
2019-01-30T00:57:55.310Z,55.85
2019-01-30T01:00:30.122Z,46.02
2019-01-30T01:03:03.660Z,51.05
2019-01-30T01:05:35.924Z,45.88
2019-01-30T01:08:08.237Z,38.05
2019-01-30T01:10:41.015Z,40.90
2019-01-30T01:13:14.586Z,36.77
2019-01-30T01:15:47.481Z,32.00
2019-01-30T01:18:21.532Z,38.50
2019-01-30T01:20:53.726Z,33.10
2019-01-30T01:23:25.950Z,33.80
2019-01-30T01:25:58.317Z,42.38
2019-01-30T01:28:30.834Z,35.00
2019-01-30T01:31:03.119Z,36.00
2019-01-30T01:33:35.636Z,39.60
2019-01-30T01:36:08.210Z,36.63
2019-01-30T01:38:40.861Z,42.25
2019-01-30T01:41:13.922Z,38.73
2019-01-30T01:44:07.202Z,38.53
2019-01-30T01:46:40.154Z,40.88
2019-01-30T01:49:13.225Z,38.92
2019-01-30T01:51:46.272Z,32.67
2019-01-30T01:54:18.708Z,30.65
2019-01-30T01:56:50.893Z,25.90
2019-01-30T01:59:23.392Z,32.67
2019-01-30T02:01:55.690Z,34.43
2019-01-30T02:04:28.681Z,27.17
2019-01-30T02:07:00.877Z,27.35
2019-01-30T02:09:33.361Z,26.55
2019-01-30T02:12:05.547Z,34.60
2019-01-30T02:14:38.063Z,26.75
2019-01-30T02:17:10.357Z,24.47
2019-01-30T02:19:43.001Z,38.50
2019-01-30T02:22:15.398Z,24.47
2019-01-30T02:24:48.396Z,27.00
2019-01-30T02:27:20.688Z,24.65
2019-01-30T02:29:53.114Z,31.77
2019-01-30T02:32:25.655Z,28.65
2019-01-30T02:34:57.998Z,21.05
2019-01-30T02:37:30.674Z,23.10
2019-01-30T02:40:02.872Z,25.95
2019-01-30T02:42:35.436Z,22.80
2019-01-30T02:45:10.389Z,21.15
2019-01-30T02:47:43.122Z,18.05
2019-01-30T02:50:17.554Z,20.50
2019-01-30T02:52:50.045Z,22.73
2019-01-30T02:55:22.767Z,19.15
2019-01-30T02:57:55.685Z,20.72
2019-01-30T03:00:30.169Z,22.02
2019-01-30T03:03:02.744Z,19.82
2019-01-30T03:05:35.272Z,17.60
2019-01-30T03:08:08.349Z,20.95
2019-01-30T03:10:41.182Z,21.57
2019-01-30T03:13:13.632Z,19.00
2019-01-30T03:15:46.088Z,19.73
2019-01-30T03:18:18.260Z,19.67
2019-01-30T03:20:50.573Z,18.35
2019-01-30T03:23:22.895Z,22.40
2019-01-30T03:25:55.096Z,18.30
2019-01-30T03:28:27.213Z,16.02
2019-01-30T03:31:15.622Z,17.23
2019-01-30T03:33:33.221Z,19.75
2019-01-30T03:36:05.952Z,16.37
2019-01-30T03:38:38.042Z,15.90
2019-01-30T03:41:10.429Z,15.65
2019-01-30T03:43:42.510Z,17.67
2019-01-30T03:46:15.562Z,21.57
2019-01-30T03:48:47.842Z,19.67
2019-01-30T03:51:20.169Z,20.08
2019-01-30T03:53:52.725Z,15.05
2019-01-30T03:56:25.722Z,13.83
2019-01-30T03:58:58.416Z,17.30
2019-01-30T04:01:30.707Z,16.12
2019-01-30T04:04:03.408Z,13.40
2019-01-30T04:06:35.743Z,15.65
2019-01-30T04:09:09.177Z,14.23
2019-01-30T04:11:41.598Z,13.88
2019-01-30T04:14:14.493Z,15.00
2019-01-30T04:16:46.905Z,18.73
2019-01-30T04:19:19.234Z,16.32
2019-01-30T04:21:51.759Z,14.28
2019-01-30T04:24:23.848Z,14.00
2019-01-30T04:26:56.185Z,14.58
2019-01-30T04:29:28.379Z,18.75
2019-01-30T04:32:00.562Z,22.73
2019-01-30T04:34:32.759Z,13.95
2019-01-30T04:37:05.061Z,17.37
2019-01-30T04:39:37.258Z,19.73
2019-01-30T04:42:09.672Z,15.30
2019-01-30T04:44:42.047Z,16.07
2019-01-30T04:47:14.912Z,18.65
2019-01-30T04:49:47.438Z,15.03
2019-01-30T04:52:20.112Z,12.50
2019-01-30T04:54:52.588Z,15.05
2019-01-30T04:57:25.536Z,18.60
2019-01-30T04:59:57.733Z,16.00
2019-01-30T05:02:30.380Z,17.37
2019-01-30T05:05:02.590Z,17.87
2019-01-30T05:07:34.770Z,15.32
2019-01-30T05:10:09.528Z,15.45
2019-01-30T05:12:41.994Z,23.77
2019-01-30T05:15:16.769Z,16.82
2019-01-30T05:17:49.047Z,18.45
2019-01-30T05:20:22.532Z,19.55
2019-01-30T05:22:55.091Z,16.10
2019-01-30T05:25:27.393Z,25.57
2019-01-30T05:27:59.608Z,19.35
2019-01-30T05:30:34.112Z,18.50
2019-01-30T05:33:06.780Z,13.78
2019-01-30T05:35:39.046Z,14.55
2019-01-30T05:38:11.961Z,16.00
2019-01-30T05:40:45.164Z,16.25
2019-01-30T05:43:17.490Z,16.05
2019-01-30T05:45:51.032Z,14.28
2019-01-30T05:48:23.344Z,14.43
2019-01-30T05:50:55.818Z,20.05
2019-01-30T05:53:28.179Z,16.20
2019-01-30T05:56:00.627Z,20.62
2019-01-30T05:58:32.820Z,20.68
2019-01-30T06:01:05.402Z,18.05
2019-01-30T06:03:37.958Z,16.15
2019-01-30T06:06:10.274Z,17.70
2019-01-30T06:08:42.866Z,17.25
2019-01-30T06:11:15.354Z,29.52
2019-01-30T06:13:47.931Z,23.57
2019-01-30T06:16:20.329Z,18.42
2019-01-30T06:18:52.819Z,20.23
2019-01-30T06:21:25.632Z,17.50
2019-01-30T06:23:58.091Z,15.23
2019-01-30T06:26:30.355Z,20.52
2019-01-30T06:29:03.354Z,19.37
2019-01-30T06:31:35.477Z,17.82
2019-01-30T06:34:08.348Z,15.45
2019-01-30T06:36:40.431Z,13.70
2019-01-30T06:39:13.349Z,14.73
2019-01-30T06:41:45.724Z,19.10
2019-01-30T06:44:18.488Z,17.73
2019-01-30T06:46:50.813Z,18.07
2019-01-30T06:49:23.752Z,15.50
2019-01-30T06:51:56.063Z,18.02
2019-01-30T06:54:28.815Z,18.48
2019-01-30T06:57:01.413Z,15.80
2019-01-30T06:59:33.634Z,17.42
2019-01-30T07:02:06.655Z,18.92
2019-01-30T07:04:38.867Z,16.60
2019-01-30T07:07:11.444Z,15.68
2019-01-30T07:09:43.675Z,20.80
2019-01-30T07:12:16.210Z,16.87
2019-01-30T07:14:48.519Z,18.20
2019-01-30T07:17:21.563Z,17.55
2019-01-30T07:19:53.853Z,18.10
2019-01-30T07:22:26.434Z,17.32
2019-01-30T07:24:59.028Z,15.05
2019-01-30T07:27:31.559Z,17.92
2019-01-30T07:30:04.385Z,18.57
2019-01-30T07:32:42.235Z,21.12
2019-01-30T07:35:11.876Z,17.23
2019-01-30T07:37:44.290Z,20.77
2019-01-30T07:40:18.204Z,19.57
2019-01-30T07:42:50.863Z,21.27
2019-01-30T07:45:25.571Z,18.52
2019-01-30T07:47:58.044Z,20.77
2019-01-30T07:50:30.454Z,17.35
2019-01-30T07:53:03.101Z,18.48
2019-01-30T07:55:35.646Z,17.40
2019-01-30T07:58:08.222Z,21.52
2019-01-30T08:00:40.867Z,20.05
2019-01-30T08:03:13.090Z,22.77
2019-01-30T08:05:45.649Z,20.95
2019-01-30T08:08:18.987Z,18.35
2019-01-30T08:10:51.445Z,18.20
2019-01-30T08:13:23.752Z,20.48
2019-01-30T08:15:56.513Z,14.90
2019-01-30T08:18:29.107Z,20.30
2019-01-30T08:21:02.041Z,21.65
2019-01-30T08:23:34.458Z,19.62
2019-01-30T08:26:07.415Z,16.87
2019-01-30T08:28:40.304Z,17.52
2019-01-30T08:31:13.011Z,21.17
2019-01-30T08:33:45.603Z,22.62
2019-01-30T08:36:18.113Z,18.85
2019-01-30T08:38:50.499Z,20.30
2019-01-30T08:41:23.371Z,25.75
2019-01-30T08:43:57.940Z,19.17
2019-01-30T08:46:29.419Z,21.70
2019-01-30T08:49:01.950Z,20.95
2019-01-30T08:51:35.054Z,19.23
2019-01-30T08:54:07.916Z,17.10
2019-01-30T08:56:52.395Z,17.67
2019-01-30T08:59:14.361Z,21.85
2019-01-30T09:01:46.771Z,23.83
2019-01-30T09:04:19.202Z,18.50
2019-01-30T09:06:52.361Z,20.68
2019-01-30T09:09:24.819Z,19.00
2019-01-30T09:11:57.892Z,19.07
2019-01-30T09:14:30.627Z,16.85
2019-01-30T09:17:06.549Z,23.35
2019-01-30T09:19:36.645Z,20.43
2019-01-30T09:22:09.294Z,22.95
2019-01-30T09:24:42.326Z,22.42
2019-01-30T09:27:15.448Z,21.10
2019-01-30T09:29:47.934Z,20.57
2019-01-30T09:32:20.519Z,20.15
2019-01-30T09:34:52.878Z,21.20
2019-01-30T09:37:27.304Z,22.80
2019-01-30T09:39:58.910Z,20.32
2019-01-30T09:42:31.136Z,23.60
2019-01-30T09:45:03.289Z,22.52
2019-01-30T09:47:35.582Z,19.75
2019-01-30T09:50:10.005Z,22.75
2019-01-30T09:52:42.534Z,23.38
2019-01-30T09:55:16.486Z,23.12
2019-01-30T09:57:49.604Z,24.15
2019-01-30T10:00:24.785Z,21.93
2019-01-30T10:02:57.328Z,21.55
2019-01-30T10:05:29.955Z,22.15
2019-01-30T10:08:02.705Z,29.15
2019-01-30T10:10:37.619Z,25.62
2019-01-30T10:13:10.408Z,28.32
2019-01-30T10:15:45.770Z,24.47
2019-01-30T10:18:18.008Z,26.07
2019-01-30T10:20:50.818Z,25.17
2019-01-30T10:23:23.537Z,22.30
2019-01-30T10:25:55.957Z,24.95
2019-01-30T10:28:28.660Z,25.57
2019-01-30T10:31:01.391Z,27.98
2019-01-30T10:33:33.559Z,27.02
2019-01-30T10:36:06.368Z,21.95
2019-01-30T10:38:38.507Z,30.02
2019-01-30T10:41:10.894Z,43.02
2019-01-30T10:43:43.192Z,35.65
2019-01-30T10:46:15.756Z,34.67
2019-01-30T10:48:48.159Z,28.98
2019-01-30T10:51:20.971Z,41.63
2019-01-30T10:53:53.569Z,38.23
2019-01-30T10:56:26.097Z,34.55
2019-01-30T10:58:58.408Z,37.33
2019-01-30T11:01:30.960Z,40.80
2019-01-30T11:04:03.169Z,40.50
2019-01-30T11:06:35.389Z,39.00
2019-01-30T11:09:09.634Z,91.02
2019-01-30T11:11:42.148Z,33.88
2019-01-30T11:14:14.559Z,44.30
2019-01-30T11:16:47.454Z,31.00
2019-01-30T11:19:19.804Z,31.82
2019-01-30T11:21:52.186Z,36.58
2019-01-30T11:24:24.756Z,32.98
2019-01-30T11:26:57.229Z,36.68
2019-01-30T11:29:29.519Z,47.90
2019-01-30T11:32:02.078Z,34.18
2019-01-30T11:34:34.426Z,39.95
2019-01-30T11:37:06.958Z,38.67
2019-01-30T11:39:39.380Z,47.10
2019-01-30T11:42:12.033Z,52.33
2019-01-30T11:44:44.256Z,59.48
2019-01-30T11:47:16.770Z,47.90
2019-01-30T11:49:49.116Z,44.48
2019-01-30T11:52:21.931Z,55.80
2019-01-30T11:54:54.130Z,58.38
2019-01-30T11:57:26.600Z,61.20
2019-01-30T11:59:58.981Z,83.75
2019-01-30T12:02:31.725Z,92.35
2019-01-30T12:05:04.024Z,87.92
2019-01-30T12:07:36.707Z,95.70
2019-01-30T12:10:13.037Z,81.08
2019-01-30T12:12:45.167Z,81.75
2019-01-30T12:15:19.719Z,75.80
2019-01-30T12:17:52.366Z,83.85
2019-01-30T12:20:25.070Z,114.65
2019-01-30T12:22:57.826Z,148.17
2019-01-30T12:25:30.283Z,144.05
2019-01-30T12:28:02.910Z,175.12
2019-01-30T12:30:35.527Z,192.22
2019-01-30T12:33:07.889Z,180.00
2019-01-30T12:35:40.864Z,161.75
2019-01-30T12:38:13.089Z,151.80
2019-01-30T12:40:45.748Z,135.05
2019-01-30T12:43:18.097Z,111.55
2019-01-30T12:45:50.582Z,89.40
2019-01-30T12:48:22.883Z,72.03
2019-01-30T12:50:55.914Z,78.72
2019-01-30T12:53:28.166Z,66.65
2019-01-30T12:56:00.466Z,70.65
2019-01-30T12:58:32.969Z,71.28
2019-01-30T13:01:05.692Z,71.17
2019-01-30T13:03:38.781Z,71.97
2019-01-30T13:06:11.374Z,81.32
2019-01-30T13:08:44.029Z,76.53
2019-01-30T13:11:16.744Z,77.67
2019-01-30T13:13:49.567Z,71.02
2019-01-30T13:16:22.167Z,70.55
2019-01-30T13:18:54.509Z,71.50
2019-01-30T13:21:27.821Z,87.27
2019-01-30T13:24:00.556Z,83.92
2019-01-30T13:26:33.007Z,71.60
2019-01-30T13:29:05.952Z,83.22
2019-01-30T13:31:38.385Z,76.72
2019-01-30T13:34:11.042Z,73.87
2019-01-30T13:36:43.239Z,71.10
2019-01-30T13:39:15.930Z,71.47
2019-01-30T13:41:49.055Z,77.62
2019-01-30T13:44:21.672Z,67.08
2019-01-30T13:46:54.217Z,72.08
2019-01-30T13:49:26.743Z,70.32
2019-01-30T13:51:59.292Z,65.70
2019-01-30T13:54:31.703Z,189.15
2019-01-30T13:57:04.302Z,117.20
2019-01-30T13:59:36.732Z,68.07
2019-01-30T14:02:09.414Z,73.52
2019-01-30T14:04:42.264Z,67.55
2019-01-30T14:07:14.804Z,74.47
2019-01-30T14:09:47.537Z,79.80
2019-01-30T14:12:19.893Z,68.02
2019-01-30T14:14:52.498Z,65.87
2019-01-30T14:17:24.868Z,61.10
2019-01-30T14:19:57.928Z,67.65
2019-01-30T14:22:30.642Z,75.83
2019-01-30T14:25:03.187Z,74.60
2019-01-30T14:27:35.460Z,76.62
2019-01-30T14:30:10.228Z,74.97
2019-01-30T14:32:42.362Z,69.85
2019-01-30T14:35:14.821Z,74.27
2019-01-30T14:37:47.762Z,78.75
2019-01-30T14:40:22.573Z,73.95
2019-01-30T14:42:55.386Z,76.85
2019-01-30T14:45:27.990Z,68.80
2019-01-30T14:48:02.481Z,73.35
2019-01-30T14:50:35.121Z,75.50
2019-01-30T14:53:07.479Z,69.35
2019-01-30T14:55:40.077Z,71.82
2019-01-30T14:58:13.235Z,71.72
2019-01-30T15:00:45.695Z,67.65
2019-01-30T15:03:18.414Z,74.92
2019-01-30T15:05:50.838Z,92.85
2019-01-30T15:08:23.169Z,104.95
2019-01-30T15:10:55.572Z,88.90
2019-01-30T15:13:27.769Z,88.12
2019-01-30T15:16:01.384Z,75.47
2019-01-30T15:18:33.585Z,80.75
2019-01-30T15:21:06.527Z,69.17
2019-01-30T15:23:38.798Z,63.73
2019-01-30T15:26:11.539Z,69.53
2019-01-30T15:28:44.078Z,63.45
2019-01-30T15:31:16.556Z,76.05
2019-01-30T15:33:49.946Z,78.90
2019-01-30T15:36:23.073Z,76.85
2019-01-30T15:38:55.466Z,59.35
2019-01-30T15:41:27.861Z,63.75
2019-01-30T15:44:00.841Z,73.70
2019-01-30T15:46:33.282Z,68.92
2019-01-30T15:49:06.424Z,68.30
2019-01-30T15:51:38.672Z,65.87
2019-01-30T15:54:11.179Z,64.15
2019-01-30T15:56:43.672Z,59.23
2019-01-30T15:59:16.423Z,62.80
2019-01-30T16:01:49.602Z,66.28
2019-01-30T16:04:22.049Z,64.50
2019-01-30T16:06:54.640Z,64.72
2019-01-30T16:09:27.300Z,62.88
2019-01-30T16:11:59.462Z,66.12
2019-01-30T16:14:31.754Z,63.02
2019-01-30T16:17:04.120Z,62.88
2019-01-30T16:19:36.846Z,70.75
2019-01-30T16:22:09.302Z,66.70
2019-01-30T16:24:42.146Z,64.80
2019-01-30T16:27:14.672Z,65.65
2019-01-30T16:29:48.456Z,72.75
2019-01-30T16:32:21.202Z,65.97
2019-01-30T16:34:53.530Z,65.22
2019-01-30T16:37:25.978Z,66.12
2019-01-30T16:39:58.593Z,65.42
2019-01-30T16:42:31.130Z,65.62
2019-01-30T16:45:03.367Z,59.10
2019-01-30T16:47:35.740Z,58.38
2019-01-30T16:50:10.942Z,60.75
2019-01-30T16:52:43.624Z,63.00
2019-01-30T16:55:18.762Z,62.40
2019-01-30T16:57:51.576Z,64.45
2019-01-30T17:00:26.270Z,54.45
2019-01-30T17:02:58.981Z,58.68
2019-01-30T17:05:32.436Z,63.85
2019-01-30T17:08:04.730Z,51.90
2019-01-30T17:10:37.709Z,64.85
2019-01-30T17:13:12.712Z,62.83
2019-01-30T17:15:44.119Z,55.58
2019-01-30T17:18:16.931Z,59.20
2019-01-30T17:20:49.508Z,67.65
2019-01-30T17:23:21.817Z,57.53
2019-01-30T17:25:54.597Z,61.98
2019-01-30T17:28:26.967Z,59.65
2019-01-30T17:31:02.224Z,59.18
2019-01-30T17:33:34.654Z,62.90
2019-01-30T17:36:17.958Z,64.20
2019-01-30T17:38:40.847Z,57.08
2019-01-30T17:41:13.144Z,56.88
2019-01-30T17:43:45.493Z,59.40
2019-01-30T17:46:17.937Z,58.13
2019-01-30T17:48:50.906Z,69.72
2019-01-30T17:51:23.401Z,59.25
2019-01-30T17:53:56.066Z,57.67
2019-01-30T17:56:28.475Z,59.50
2019-01-30T17:59:02.062Z,60.45
2019-01-30T18:01:34.542Z,55.48
2019-01-30T18:04:07.484Z,62.45
2019-01-30T18:06:39.793Z,61.42
2019-01-30T18:09:12.129Z,54.90
2019-01-30T18:11:44.357Z,50.95
2019-01-30T18:14:16.965Z,57.17
2019-01-30T18:16:49.654Z,54.53
2019-01-30T18:19:22.058Z,58.83
2019-01-30T18:21:54.404Z,55.78
2019-01-30T18:24:26.754Z,58.85
2019-01-30T18:26:59.216Z,53.95
2019-01-30T18:29:32.212Z,51.55
2019-01-30T18:32:04.819Z,47.43
2019-01-30T18:34:37.136Z,51.15
2019-01-30T18:37:09.571Z,45.83
2019-01-30T18:39:41.768Z,49.27
2019-01-30T18:42:14.230Z,50.95
2019-01-30T18:44:46.746Z,51.68
2019-01-30T18:47:19.260Z,49.83
2019-01-30T18:49:52.571Z,50.67
2019-01-30T18:52:25.316Z,51.58
2019-01-30T18:54:57.999Z,52.70
2019-01-30T18:57:30.555Z,52.95
2019-01-30T19:00:03.005Z,51.88
2019-01-30T19:02:36.379Z,51.73
2019-01-30T19:05:11.787Z,50.78
2019-01-30T19:07:45.108Z,55.70
2019-01-30T19:10:19.451Z,54.73
2019-01-30T19:12:51.819Z,48.78
2019-01-30T19:15:26.457Z,52.45
2019-01-30T19:17:58.800Z,55.43
2019-01-30T19:20:33.884Z,53.95
2019-01-30T19:23:07.006Z,51.33
2019-01-30T19:25:40.079Z,51.70
2019-01-30T19:28:12.505Z,49.18
2019-01-30T19:30:45.231Z,50.75
2019-01-30T19:33:17.596Z,49.25
2019-01-30T19:35:52.268Z,57.88
2019-01-30T19:38:23.518Z,56.05
2019-01-30T19:40:55.838Z,53.60
2019-01-30T19:43:28.183Z,54.35
2019-01-30T19:46:00.474Z,54.10
2019-01-30T19:48:32.812Z,53.65
2019-01-30T19:51:05.451Z,48.98
2019-01-30T19:53:37.703Z,53.75
2019-01-30T19:56:10.433Z,50.92
2019-01-30T19:58:42.709Z,48.15
2019-01-30T20:01:15.161Z,49.25
2019-01-30T20:03:47.510Z,50.03
2019-01-30T20:06:20.349Z,50.78
2019-01-30T20:08:52.649Z,49.95
2019-01-30T20:11:25.096Z,53.33
2019-01-30T20:13:57.732Z,57.27
2019-01-30T20:16:30.544Z,64.00
2019-01-30T20:19:03.138Z,74.67
2019-01-30T20:21:35.657Z,79.67
2019-01-30T20:24:08.096Z,79.42
2019-01-30T20:26:40.711Z,68.17
2019-01-30T20:29:13.379Z,72.53
2019-01-30T20:31:45.821Z,68.95
2019-01-30T20:34:18.425Z,70.20
2019-01-30T20:36:50.781Z,63.80
2019-01-30T20:39:23.115Z,68.70
2019-01-30T20:41:55.437Z,74.35
2019-01-30T20:44:28.020Z,69.45
2019-01-30T20:47:00.378Z,72.15
2019-01-30T20:49:33.265Z,76.92
2019-01-30T20:52:05.603Z,71.17
2019-01-30T20:54:38.227Z,77.82
2019-01-30T20:57:10.730Z,75.32
2019-01-30T20:59:43.257Z,81.80
2019-01-30T21:02:15.829Z,71.72
2019-01-30T21:04:48.148Z,79.65
2019-01-30T21:07:20.619Z,73.47
2019-01-30T21:09:53.402Z,77.87
2019-01-30T21:12:25.821Z,77.35
2019-01-30T21:14:58.478Z,75.28
2019-01-30T21:17:31.599Z,72.80
2019-01-30T21:20:04.080Z,71.85
2019-01-30T21:22:36.542Z,81.72
2019-01-30T21:25:11.035Z,71.28
2019-01-30T21:27:43.748Z,74.97
2019-01-30T21:30:18.831Z,71.60
2019-01-30T21:32:51.384Z,77.87
2019-01-30T21:35:23.781Z,74.80
2019-01-30T21:37:56.463Z,71.80
2019-01-30T21:40:28.776Z,70.00
2019-01-30T21:43:01.470Z,75.47
2019-01-30T21:45:33.790Z,77.70
2019-01-30T21:48:06.444Z,75.97
2019-01-30T21:50:38.732Z,77.50
2019-01-30T21:53:11.148Z,73.42
2019-01-30T21:55:43.438Z,72.40
2019-01-30T21:58:15.764Z,76.62
2019-01-30T22:00:48.010Z,71.97
2019-01-30T22:03:20.953Z,73.55
2019-01-30T22:05:54.146Z,70.20
2019-01-30T22:08:26.800Z,72.87
2019-01-30T22:10:59.132Z,68.42
2019-01-30T22:13:34.561Z,66.92
2019-01-30T22:16:07.559Z,73.30
2019-01-30T22:18:39.961Z,67.62
2019-01-30T22:21:12.250Z,71.85
2019-01-30T22:23:44.827Z,65.25
2019-01-30T22:26:17.108Z,65.62
2019-01-30T22:28:50.084Z,71.30
2019-01-30T22:31:22.750Z,64.30
2019-01-30T22:33:55.196Z,62.80
2019-01-30T22:36:27.584Z,67.97
2019-01-30T22:39:00.305Z,60.35
2019-01-30T22:41:33.803Z,66.82
2019-01-30T22:44:06.216Z,65.87
2019-01-30T22:46:38.596Z,63.75
2019-01-30T22:49:11.289Z,60.45
2019-01-30T22:51:44.786Z,64.25
2019-01-30T22:54:17.828Z,60.48
2019-01-30T22:56:50.452Z,60.33
2019-01-30T22:59:22.929Z,68.65
2019-01-30T23:01:55.971Z,61.13
2019-01-30T23:04:31.159Z,64.05
2019-01-30T23:07:06.090Z,63.63
2019-01-30T23:09:41.121Z,61.28
2019-01-30T23:12:15.690Z,70.40
2019-01-30T23:14:50.625Z,63.58
2019-01-30T23:17:25.719Z,65.70
2019-01-30T23:20:00.975Z,62.33
2019-01-30T23:22:35.994Z,57.85
2019-01-30T23:25:10.923Z,67.90
2019-01-30T23:27:45.763Z,64.25
2019-01-30T23:30:20.741Z,61.58
2019-01-30T23:32:55.721Z,62.62
2019-01-30T23:35:30.191Z,59.73
2019-01-30T23:38:05.382Z,57.55
2019-01-30T23:40:40.314Z,63.80
2019-01-30T23:43:15.757Z,64.87
2019-01-30T23:45:50.693Z,66.50
2019-01-30T23:48:26.445Z,70.52
2019-01-30T23:51:00.871Z,61.83
2019-01-30T23:53:36.308Z,61.05
2019-01-30T23:56:11.343Z,66.33
2019-01-30T23:58:46.481Z,63.92
